Time,TemperatureF,DewpointF,PressureIn,WindDirection,WindDirectionDegrees,WindSpeedMPH,WindSpeedGustMPH,Humidity,HourlyPrecipIn,Conditions,Clouds,dailyrainin,SoftwareType,DateUTC
2013-03-08 00:03:00,29.5,29.0,29.89,NNE,22,0.0,-999.0,98,-99.99,,,0.00,Acu-Link.com,2013-03-08 05:03:00,
2013-03-08 00:18:00,29.3,28.8,29.88,North,0,0.0,-999.0,98,-99.99,,,0.00,Acu-Link.com,2013-03-08 05:18:00,
2013-03-08 00:34:00,29.3,28.8,29.88,NNE,22,0.0,-999.0,98,-99.99,,,0.00,Acu-Link.com,2013-03-08 05:34:00,
2013-03-08 00:49:00,29.1,28.6,29.89,NNE,22,0.0,-999.0,98,-99.99,,,0.00,Acu-Link.com,2013-03-08 05:49:00,
2013-03-08 01:04:00,28.9,28.4,29.88,NNE,22,0.0,-999.0,98,-99.99,,,0.00,Acu-Link.com,2013-03-08 06:04:00,
2013-03-08 01:19:00,28.9,28.4,29.87,SSE,157,0.0,-999.0,98,-99.99,,,0.00,Acu-Link.com,2013-03-08 06:19:00,
2013-03-08 01:35:00,28.9,28.4,29.88,ENE,67,0.0,-999.0,98,-99.99,,,0.00,Acu-Link.com,2013-03-08 06:35:00,
2013-03-08 01:50:00,28.8,28.3,29.88,NNE,22,0.0,-999.0,98,-99.99,,,0.00,Acu-Link.com,2013-03-08 06:50:00,
2013-03-08 02:05:00,28.8,28.3,29.88,NNE,22,0.0,-999.0,98,-99.99,,,0.00,Acu-Link.com,2013-03-08 07:05:00,
2013-03-08 02:21:00,28.8,28.3,29.86,WNW,292,0.0,-999.0,98,-99.99,,,0.00,Acu-Link.com,2013-03-08 07:21:00,
2013-03-08 02:36:00,28.8,28.3,29.86,NNE,22,0.0,-999.0,98,-99.99,,,0.00,Acu-Link.com,2013-03-08 07:36:00,
2013-03-08 02:51:00,28.8,28.3,29.84,NNW,337,0.0,-999.0,98,-99.99,,,0.00,Acu-Link.com,2013-03-08 07:51:00,
2013-03-08 03:07:00,28.8,28.3,29.83,North,0,0.0,-999.0,98,-99.99,,,0.00,Acu-Link.com,2013-03-08 08:07:00,
2013-03-08 03:22:00,28.8,28.3,29.84,NNE,22,0.0,-999.0,98,-99.99,,,0.00,Acu-Link.com,2013-03-08 08:22:00,
2013-03-08 03:37:00,28.9,28.4,29.84,NNE,22,0.0,-999.0,98,-99.99,,,0.00,Acu-Link.com,2013-03-08 08:37:00,
2013-03-08 03:53:00,28.9,28.7,29.85,NNE,22,0.0,-999.0,99,-99.99,,,0.00,Acu-Link.com,2013-03-08 08:53:00,
2013-03-08 04:08:00,28.9,28.7,29.84,South,180,0.0,-999.0,99,-99.99,,,0.00,Acu-Link.com,2013-03-08 09:08:00,
2013-03-08 04:23:00,28.9,28.7,29.84,NNE,22,0.0,-999.0,99,-99.99,,,0.00,Acu-Link.com,2013-03-08 09:23:00,
2013-03-08 04:38:00,28.9,28.7,29.84,East,90,0.0,-999.0,99,-99.99,,,0.00,Acu-Link.com,2013-03-08 09:38:00,
2013-03-08 04:54:00,28.9,28.7,29.84,NNE,22,0.0,-999.0,99,-99.99,,,0.00,Acu-Link.com,2013-03-08 09:54:00,
2013-03-08 05:09:00,28.9,28.7,29.84,NE,45,0.0,-999.0,99,-99.99,,,0.00,Acu-Link.com,2013-03-08 10:09:00,
2013-03-08 05:24:00,28.9,28.7,29.84,NNE,22,0.0,-999.0,99,-99.99,,,0.00,Acu-Link.com,2013-03-08 10:24:00,
2013-03-08 05:39:00,28.9,28.7,29.84,NNE,22,0.0,-999.0,99,-99.99,,,0.00,Acu-Link.com,2013-03-08 10:39:00,
2013-03-08 05:55:00,28.9,28.7,29.85,West,270,0.0,-999.0,99,-99.99,,,0.00,Acu-Link.com,2013-03-08 10:55:00,
2013-03-08 06:10:00,28.9,28.7,29.85,NNE,22,0.0,-999.0,99,-99.99,,,0.00,Acu-Link.com,2013-03-08 11:10:00,
2013-03-08 06:25:00,28.9,28.7,29.85,NNE,22,0.0,-999.0,99,-99.99,,,0.00,Acu-Link.com,2013-03-08 11:25:00,
2013-03-08 06:41:00,28.9,28.7,29.86,NNE,22,0.0,-999.0,99,-99.99,,,0.00,Acu-Link.com,2013-03-08 11:41:00,
2013-03-08 06:56:00,28.9,28.7,29.86,NE,45,0.0,-999.0,99,-99.99,,,0.00,Acu-Link.com,2013-03-08 11:56:00,
2013-03-08 07:11:00,28.9,28.7,29.86,WNW,292,0.0,-999.0,99,-99.99,,,0.00,Acu-Link.com,2013-03-08 12:11:00,
2013-03-08 07:27:00,29.1,28.9,29.86,South,180,0.0,-999.0,99,-99.99,,,0.00,Acu-Link.com,2013-03-08 12:27:00,
2013-03-08 07:42:00,29.1,28.6,29.88,SW,225,0.0,-999.0,98,-99.99,,,0.00,Acu-Link.com,2013-03-08 12:42:00,
2013-03-08 07:57:00,29.5,28.8,29.88,NNE,22,0.0,-999.0,97,-99.99,,,0.00,Acu-Link.com,2013-03-08 12:57:00,
2013-03-08 08:13:00,29.8,29.1,29.88,WSW,247,0.0,-999.0,97,-99.99,,,0.00,Acu-Link.com,2013-03-08 13:13:00,
2013-03-08 08:28:00,30.0,29.0,29.87,NNE,22,0.0,-999.0,96,-99.99,,,0.00,Acu-Link.com,2013-03-08 13:28:00,
2013-03-08 08:44:00,30.6,29.6,29.88,South,180,0.0,-999.0,96,-99.99,,,0.00,Acu-Link.com,2013-03-08 13:44:00,
2013-03-08 08:59:00,31.1,29.8,29.87,NNE,22,0.0,-999.0,95,-99.99,,,0.00,Acu-Link.com,2013-03-08 13:59:00,
2013-03-08 09:15:00,31.8,30.3,29.88,SSW,202,0.0,-999.0,94,-99.99,,,0.00,Acu-Link.com,2013-03-08 14:15:00,
2013-03-08 09:30:00,33.1,31.0,29.88,NE,45,0.0,-999.0,92,-99.99,,,0.00,Acu-Link.com,2013-03-08 14:30:00,
2013-03-08 09:46:00,33.6,31.3,29.87,NNE,22,0.0,-999.0,91,-99.99,,,0.00,Acu-Link.com,2013-03-08 14:46:00,
2013-03-08 10:01:00,34.2,31.6,29.88,NNE,22,0.0,-999.0,90,-99.99,,,0.00,Acu-Link.com,2013-03-08 15:01:00,
2013-03-08 10:16:00,34.9,31.7,29.88,SW,225,0.0,-999.0,88,-99.99,,,0.00,Acu-Link.com,2013-03-08 15:16:00,
2013-03-08 10:32:00,35.4,31.9,29.88,WNW,292,0.0,-999.0,87,-99.99,,,0.00,Acu-Link.com,2013-03-08 15:32:00,
2013-03-08 10:48:00,37.0,33.2,29.88,NNE,22,0.0,-999.0,86,-99.99,,,0.00,Acu-Link.com,2013-03-08 15:48:00,
2013-03-08 11:03:00,36.3,32.8,29.89,NNE,22,0.0,-999.0,87,-99.99,,,0.00,Acu-Link.com,2013-03-08 16:03:00,
2013-03-08 11:19:00,36.3,32.2,29.90,NW,315,0.0,-999.0,85,-99.99,,,0.00,Acu-Link.com,2013-03-08 16:19:00,
2013-03-08 11:34:00,35.8,32.3,29.89,NNW,337,0.0,-999.0,87,-99.99,,,0.00,Acu-Link.com,2013-03-08 16:34:00,
2013-03-08 11:49:00,37.0,33.5,29.89,NE,45,0.0,-999.0,87,-99.99,,,0.00,Acu-Link.com,2013-03-08 16:49:00,
2013-03-08 12:04:00,37.0,32.6,29.90,NNE,22,0.0,-999.0,84,-99.99,,,0.00,Acu-Link.com,2013-03-08 17:04:00,
2013-03-08 12:20:00,37.2,33.1,29.91,SSW,202,0.0,-999.0,85,-99.99,,,0.00,Acu-Link.com,2013-03-08 17:20:00,
2013-03-08 12:35:00,37.8,33.7,29.91,NNE,22,0.0,-999.0,85,-99.99,,,0.00,Acu-Link.com,2013-03-08 17:35:00,
2013-03-08 12:50:00,36.5,31.8,29.90,NNE,22,0.0,-999.0,83,-99.99,,,0.00,Acu-Link.com,2013-03-08 17:50:00,
2013-03-08 13:06:00,36.9,32.5,29.91,South,180,2.2,-999.0,84,-99.99,,,0.00,Acu-Link.com,2013-03-08 18:06:00,
2013-03-08 13:21:00,37.0,33.2,29.92,NNE,22,0.0,-999.0,86,-99.99,,,0.00,Acu-Link.com,2013-03-08 18:21:00,
2013-03-08 13:36:00,37.8,33.7,29.92,West,270,0.0,-999.0,85,-99.99,,,0.00,Acu-Link.com,2013-03-08 18:36:00,
2013-03-08 13:52:00,38.1,33.7,29.92,SSW,202,0.0,-999.0,84,-99.99,,,0.00,Acu-Link.com,2013-03-08 18:52:00,
2013-03-08 14:07:00,37.8,33.7,29.92,SSW,202,0.0,-999.0,85,-99.99,,,0.00,Acu-Link.com,2013-03-08 19:07:00,
2013-03-08 14:22:00,37.8,33.7,29.92,NNW,337,2.2,-999.0,85,-99.99,,,0.00,Acu-Link.com,2013-03-08 19:22:00,
2013-03-08 14:38:00,37.6,33.8,29.93,South,180,0.0,-999.0,86,-99.99,,,0.01,Acu-Link.com,2013-03-08 19:38:00,
2013-03-08 14:53:00,37.9,34.4,29.93,NNE,22,0.0,-999.0,87,-99.99,,,0.02,Acu-Link.com,2013-03-08 19:53:00,
2013-03-08 15:08:00,37.4,34.2,29.93,NNE,22,0.0,-999.0,88,-99.99,,,0.05,Acu-Link.com,2013-03-08 20:08:00,
2013-03-08 15:24:00,37.2,34.0,29.93,NNE,22,0.0,-999.0,88,-99.99,,,0.05,Acu-Link.com,2013-03-08 20:24:00,
2013-03-08 15:39:00,37.0,34.1,29.94,ESE,112,0.0,-999.0,89,-99.99,,,0.06,Acu-Link.com,2013-03-08 20:39:00,
2013-03-08 15:54:00,36.7,33.8,29.94,NNW,337,0.0,-999.0,89,-99.99,,,0.07,Acu-Link.com,2013-03-08 20:54:00,
2013-03-08 16:10:00,35.8,33.4,29.93,NNE,22,0.0,-999.0,91,-99.99,,,0.08,Acu-Link.com,2013-03-08 21:10:00,
2013-03-08 16:25:00,35.2,33.1,29.94,NNE,22,0.0,-999.0,92,-99.99,,,0.09,Acu-Link.com,2013-03-08 21:25:00,
2013-03-08 16:40:00,34.3,32.5,29.96,NE,45,0.0,-999.0,93,-99.99,,,0.09,Acu-Link.com,2013-03-08 21:40:00,
2013-03-08 16:55:00,33.8,32.3,29.97,NNE,22,0.0,-999.0,94,-99.99,,,0.10,Acu-Link.com,2013-03-08 21:55:00,
2013-03-08 17:11:00,33.3,32.0,29.97,NNE,22,0.0,-999.0,95,-99.99,,,0.11,Acu-Link.com,2013-03-08 22:11:00,
2013-03-08 17:26:00,32.9,31.9,29.97,NNE,22,0.0,-999.0,96,-99.99,,,0.12,Acu-Link.com,2013-03-08 22:26:00,
2013-03-08 17:41:00,32.7,31.7,29.98,NNE,22,0.0,-999.0,96,-99.99,,,0.12,Acu-Link.com,2013-03-08 22:41:00,
2013-03-08 17:57:00,32.4,31.6,29.99,NNE,22,0.0,-999.0,97,-99.99,,,0.13,Acu-Link.com,2013-03-08 22:57:00,
2013-03-08 18:12:00,32.2,31.7,29.99,NNE,22,0.0,-999.0,98,-99.99,,,0.13,Acu-Link.com,2013-03-08 23:12:00,
2013-03-08 18:27:00,32.0,31.5,30.00,NNE,22,0.0,-999.0,98,-99.99,,,0.13,Acu-Link.com,2013-03-08 23:27:00,
2013-03-08 18:43:00,31.6,31.1,30.00,NNE,22,0.0,-999.0,98,-99.99,,,0.14,Acu-Link.com,2013-03-08 23:43:00,
2013-03-08 18:58:00,31.5,31.0,30.01,NNE,22,0.0,-999.0,98,-99.99,,,0.14,Acu-Link.com,2013-03-08 23:58:00,
2013-03-08 19:13:00,31.3,30.8,30.01,NNE,22,0.0,-999.0,98,-99.99,,,0.14,Acu-Link.com,2013-03-09 00:13:00,
2013-03-08 19:28:00,30.9,30.4,30.02,NNE,22,0.0,-999.0,98,-99.99,,,0.14,Acu-Link.com,2013-03-09 00:28:00,
2013-03-08 19:44:00,30.7,30.2,30.02,NNE,22,0.0,-999.0,98,-99.99,,,0.14,Acu-Link.com,2013-03-09 00:44:00,
2013-03-08 19:59:00,30.6,30.1,30.03,NNE,22,0.0,-999.0,98,-99.99,,,0.14,Acu-Link.com,2013-03-09 00:59:00,
2013-03-08 20:14:00,30.0,29.3,30.03,NNE,22,0.0,-999.0,97,-99.99,,,0.14,Acu-Link.com,2013-03-09 01:14:00,
2013-03-08 20:30:00,29.8,29.1,30.03,NNE,22,0.0,-999.0,97,-99.99,,,0.14,Acu-Link.com,2013-03-09 01:30:00,
2013-03-08 20:45:00,29.3,28.6,30.03,NNE,22,0.0,-999.0,97,-99.99,,,0.14,Acu-Link.com,2013-03-09 01:45:00,
2013-03-08 21:00:00,28.9,27.7,30.04,NNE,22,0.0,-999.0,95,-99.99,,,0.14,Acu-Link.com,2013-03-09 02:00:00,
2013-03-08 21:15:00,28.8,27.3,30.04,NNE,22,0.0,-999.0,94,-99.99,,,0.14,Acu-Link.com,2013-03-09 02:15:00,
2013-03-08 21:31:00,28.2,26.7,30.04,NNE,22,0.0,-999.0,94,-99.99,,,0.14,Acu-Link.com,2013-03-09 02:31:00,
2013-03-08 21:46:00,27.9,26.4,30.04,NNE,22,0.0,-999.0,94,-99.99,,,0.14,Acu-Link.com,2013-03-09 02:46:00,
2013-03-08 22:01:00,27.7,26.2,30.05,NNE,22,0.0,-999.0,94,-99.99,,,0.14,Acu-Link.com,2013-03-09 03:01:00,
2013-03-08 22:17:00,27.1,25.9,30.06,NNE,22,0.0,-999.0,95,-99.99,,,0.14,Acu-Link.com,2013-03-09 03:17:00,
2013-03-08 22:32:00,27.0,26.3,30.06,NNE,22,0.0,-999.0,97,-99.99,,,0.14,Acu-Link.com,2013-03-09 03:32:00,
2013-03-08 22:47:00,26.8,25.6,30.06,NNE,22,0.0,-999.0,95,-99.99,,,0.14,Acu-Link.com,2013-03-09 03:47:00,
2013-03-08 23:03:00,26.8,25.1,30.06,NNE,22,0.0,-999.0,93,-99.99,,,0.14,Acu-Link.com,2013-03-09 04:03:00,
2013-03-08 23:18:00,26.4,24.7,30.06,NNE,22,0.0,-999.0,93,-99.99,,,0.14,Acu-Link.com,2013-03-09 04:18:00,
2013-03-08 23:33:00,25.9,25.2,30.06,NNE,22,0.0,-999.0,97,-99.99,,,0.14,Acu-Link.com,2013-03-09 04:33:00,
2013-03-08 23:49:00,25.7,25.0,30.06,NNE,22,0.0,-999.0,97,-99.99,,,0.14,Acu-Link.com,2013-03-09 04:49:00,